Time;durP1;ratioP1;P1;durP2;ratioP2;P2;SDS_P1;SDS_P2;PMS_P1;PMS_P2;Temp;Humidity;BMP_temperature;BMP_pressure;BME280_temperature;BME280_humidity;BME280_pressure;Samples;Min_cycle;Max_cycle;Signal;HPM_P1;HPM_P2
2021/12/28 00:01:04;;;;;;;24.67;17.17;;;2.50;99.90;;;;;;5005317;28;21008;-78
2021/12/28 00:03:30;;;;;;;19.87;15.00;;;2.60;99.90;;;;;;4989444;28;20710;-78
2021/12/28 00:05:55;;;;;;;25.50;18.70;;;2.60;99.90;;;;;;5006399;28;20609;-78
2021/12/28 00:08:22;;;;;;;26.67;16.80;;;2.40;99.90;;;;;;5003639;28;20324;-80
2021/12/28 00:10:50;;;;;;;22.93;17.30;;;2.50;99.90;;;;;;5012153;28;20685;-79
2021/12/28 00:13:17;;;;;;;24.90;17.70;;;2.50;99.90;;;;;;4996979;28;20664;-79
2021/12/28 00:16:01;;;;;;;24.87;16.33;;;2.50;99.90;;;;;;4989422;28;21180;-78
2021/12/28 00:18:27;;;;;;;22.23;16.70;;;2.50;99.90;;;;;;5000778;28;20636;-78
2021/12/28 00:21:01;;;;;;;25.37;17.27;;;2.60;99.90;;;;;;5002091;28;20636;-78
2021/12/28 00:23:36;;;;;;;21.63;15.57;;;2.50;99.90;;;;;;5004908;28;20593;-77
2021/12/28 00:26:03;;;;;;;26.13;16.97;;;2.60;99.90;;;;;;5006537;28;21146;-78
2021/12/28 00:28:31;;;;;;;28.20;16.10;;;2.60;99.90;;;;;;4989434;28;20663;-77
2021/12/28 00:30:57;;;;;;;23.30;15.50;;;2.70;99.90;;;;;;5004995;28;20663;-78
2021/12/28 00:33:28;;;;;;;24.30;16.60;;;2.70;99.90;;;;;;5006763;28;20968;-77
2021/12/28 00:35:56;;;;;;;24.70;16.23;;;2.80;99.90;;;;;;5001547;28;20612;-77
2021/12/28 00:38:26;;;;;;;25.50;16.23;;;2.70;99.90;;;;;;5005880;28;20668;-77
2021/12/28 00:40:56;;;;;;;26.10;17.07;;;2.70;99.90;;;;;;5003621;28;21227;-78
2021/12/28 00:43:22;;;;;;;25.43;16.90;;;2.70;99.90;;;;;;4988574;28;20624;-78
2021/12/28 00:45:49;;;;;;;27.10;17.30;;;2.80;99.90;;;;;;5007651;28;21035;-78
2021/12/28 00:48:18;;;;;;;27.33;16.77;;;2.70;99.90;;;;;;4995371;28;20664;-79
2021/12/28 00:50:47;;;;;;;23.23;15.63;;;2.70;99.90;;;;;;5012179;28;21209;-79
2021/12/28 00:53:21;;;;;;;24.07;16.17;;;2.90;99.90;;;;;;5008336;28;20653;-79
2021/12/28 00:55:46;;;;;;;25.73;17.80;;;2.80;99.90;;;;;;5007316;28;20625;-78
2021/12/28 00:58:12;;;;;;;21.57;15.50;;;2.80;99.90;;;;;;5010413;28;20749;-79
2021/12/28 01:00:39;;;;;;;27.90;17.47;;;2.80;99.90;;;;;;5008849;28;20221;-77
2021/12/28 01:03:06;;;;;;;23.27;16.63;;;2.60;99.90;;;;;;5012281;28;20189;-78
2021/12/28 01:05:33;;;;;;;24.27;16.40;;;2.50;99.90;;;;;;5004713;28;20711;-77
2021/12/28 01:07:59;;;;;;;27.63;16.80;;;2.50;99.90;;;;;;4982820;28;21244;-77
2021/12/28 01:10:30;;;;;;;23.90;17.03;;;2.50;99.90;;;;;;5006677;28;20702;-78
2021/12/28 01:12:58;;;;;;;26.07;16.77;;;2.50;99.90;;;;;;5007799;28;21053;-77
2021/12/28 01:15:26;;;;;;;23.83;16.10;;;2.60;99.90;;;;;;5003539;28;20802;-78
2021/12/28 01:17:59;;;;;;;25.67;16.37;;;2.60;99.90;;;;;;4987651;28;22082;-78
2021/12/28 01:20:26;;;;;;;24.40;16.03;;;2.70;99.90;;;;;;5003523;28;20952;-78
2021/12/28 01:22:52;;;;;;;24.30;16.80;;;2.70;99.90;;;;;;5006099;28;20619;-78
2021/12/28 01:25:25;;;;;;;25.30;16.00;;;2.70;99.90;;;;;;5003393;28;20616;-78
2021/12/28 01:27:51;;;;;;;20.47;14.80;;;2.60;99.90;;;;;;4983565;28;20629;-78
2021/12/28 01:30:19;;;;;;;24.97;15.73;;;2.70;99.90;;;;;;5003939;28;20636;-77
2021/12/28 01:32:47;;;;;;;23.63;16.73;;;2.80;99.90;;;;;;4984057;28;20618;-77
2021/12/28 01:35:16;;;;;;;22.10;16.80;;;2.70;99.90;;;;;;5004297;28;20612;-77
2021/12/28 01:37:42;;;;;;;26.00;16.37;;;2.70;99.90;;;;;;4994509;28;20710;-77
2021/12/28 01:40:12;;;;;;;24.87;15.70;;;2.60;99.90;;;;;;5003938;28;20652;-77
2021/12/28 01:42:56;;;;;;;22.00;16.30;;;2.70;99.90;;;;;;4981978;28;20711;-76
2021/12/28 01:45:48;;;;;;;19.70;15.00;;;2.80;99.90;;;;;;5004327;28;21083;-78
2021/12/28 01:48:19;;;;;;;21.80;15.97;;;2.80;99.90;;;;;;5008932;28;21187;-78
2021/12/28 01:50:45;;;;;;;22.13;15.83;;;2.80;99.90;;;;;;4999981;28;21227;-78
2021/12/28 01:53:14;;;;;;;22.17;15.00;;;2.80;99.90;;;;;;4993419;28;20656;-78
2021/12/28 01:55:45;;;;;;;23.00;16.20;;;2.80;99.90;;;;;;5013982;28;20626;-78
2021/12/28 01:58:13;;;;;;;24.93;16.83;;;2.80;99.90;;;;;;4988040;28;20644;-78
2021/12/28 02:00:43;;;;;;;24.00;16.33;;;2.80;99.90;;;;;;5007501;28;20643;-78
2021/12/28 02:03:11;;;;;;;24.03;16.03;;;2.80;99.90;;;;;;5007130;28;20643;-78
2021/12/28 02:05:37;;;;;;;24.20;16.30;;;2.80;99.90;;;;;;5010332;28;20619;-78
2021/12/28 02:08:07;;;;;;;23.90;15.63;;;2.80;99.90;;;;;;5014176;28;20636;-78
2021/12/28 02:10:35;;;;;;;23.63;16.17;;;2.80;99.90;;;;;;5012183;28;20632;-77
2021/12/28 02:13:06;;;;;;;24.23;15.30;;;2.80;99.90;;;;;;5008009;28;20670;-78
2021/12/28 02:15:34;;;;;;;26.23;16.57;;;2.80;99.90;;;;;;5009924;28;20704;-80
2021/12/28 02:18:04;;;;;;;24.80;16.43;;;2.80;99.90;;;;;;4994671;28;20803;-79
2021/12/28 02:20:30;;;;;;;23.50;16.63;;;2.70;99.90;;;;;;5009964;28;20639;-79
2021/12/28 02:22:56;;;;;;;25.07;16.43;;;2.80;99.90;;;;;;5005788;28;20616;-78
2021/12/28 02:25:22;;;;;;;23.17;16.57;;;2.80;99.90;;;;;;4990022;28;20221;-77
2021/12/28 02:27:48;;;;;;;26.80;16.30;;;2.80;99.90;;;;;;5010493;28;20654;-78
2021/12/28 02:30:19;;;;;;;22.60;16.17;;;2.80;99.90;;;;;;5004008;28;20645;-78
2021/12/28 02:32:51;;;;;;;26.70;16.23;;;2.80;99.90;;;;;;5007826;28;20559;-76
2021/12/28 02:35:20;;;;;;;23.63;16.27;;;2.90;99.90;;;;;;4993064;28;20640;-78
2021/12/28 02:37:49;;;;;;;26.43;15.90;;;2.80;99.90;;;;;;4992909;28;20710;-77
2021/12/28 02:40:20;;;;;;;26.03;16.83;;;2.90;99.90;;;;;;4988991;28;20632;-75
2021/12/28 02:42:47;;;;;;;23.57;15.07;;;3.00;99.90;;;;;;5008149;28;21203;-76
2021/12/28 02:45:19;;;;;;;31.07;16.60;;;3.00;99.90;;;;;;5008460;28;20620;-77
2021/12/28 02:47:46;;;;;;;27.07;16.80;;;2.90;99.90;;;;;;5003182;28;20621;-77
2021/12/28 02:50:34;;;;;;;26.73;17.07;;;3.00;99.90;;;;;;4989100;28;20702;-77
2021/12/28 02:53:00;;;;;;;22.60;15.57;;;2.90;99.90;;;;;;4993802;28;20664;-78
2021/12/28 02:55:30;;;;;;;25.60;16.33;;;3.00;99.90;;;;;;4994859;28;20662;-77
2021/12/28 02:58:03;;;;;;;24.33;16.33;;;2.80;99.90;;;;;;5010362;28;20253;-77
2021/12/28 03:00:44;;;;;;;23.60;16.60;;;2.80;99.90;;;;;;4996453;28;20657;-77
2021/12/28 03:03:20;;;;;;;22.73;16.07;;;2.90;99.90;;;;;;4986416;28;20822;-76
2021/12/28 03:05:48;;;;;;;23.07;16.90;;;2.90;99.90;;;;;;5014611;28;20602;-76
2021/12/28 03:08:15;;;;;;;25.07;18.70;;;3.00;99.90;;;;;;5014835;28;20640;-77
2021/12/28 03:10:45;;;;;;;23.77;16.77;;;2.90;99.90;;;;;;5013525;28;20656;-76
2021/12/28 03:13:21;;;;;;;23.23;16.53;;;3.00;99.90;;;;;;4993978;28;20978;-77
2021/12/28 03:15:47;;;;;;;23.70;15.77;;;3.00;99.90;;;;;;5011033;28;20654;-77
2021/12/28 03:18:14;;;;;;;25.40;16.20;;;3.00;99.90;;;;;;4999878;28;21152;-77
2021/12/28 03:20:43;;;;;;;23.87;17.50;;;3.00;99.90;;;;;;4992886;28;20674;-77
2021/12/28 03:23:08;;;;;;;24.07;16.50;;;3.00;99.90;;;;;;4994307;28;20593;-77
2021/12/28 03:25:39;;;;;;;23.93;17.47;;;3.00;99.90;;;;;;5015602;28;20604;-78
2021/12/28 03:28:05;;;;;;;25.50;17.47;;;2.90;99.90;;;;;;4997647;28;20201;-78
2021/12/28 03:30:33;;;;;;;25.50;17.77;;;2.90;99.90;;;;;;5013901;28;20728;-78
2021/12/28 03:32:58;;;;;;;26.87;18.37;;;2.80;99.90;;;;;;5025084;28;20280;-79
2021/12/28 03:35:26;;;;;;;25.53;17.93;;;2.80;99.90;;;;;;5014417;28;20696;-78
2021/12/28 03:37:51;;;;;;;26.57;18.33;;;2.80;99.90;;;;;;4992708;28;20206;-77
2021/12/28 03:40:17;;;;;;;29.13;18.77;;;2.80;99.90;;;;;;5014280;28;21002;-78
2021/12/28 03:42:44;;;;;;;25.70;17.50;;;2.90;99.90;;;;;;5009512;28;20188;-76
2021/12/28 03:45:10;;;;;;;28.73;18.67;;;2.90;99.90;;;;;;5004362;28;20621;-76
2021/12/28 03:47:36;;;;;;;27.00;17.30;;;2.80;99.90;;;;;;5007633;28;20612;-75
2021/12/28 03:50:05;;;;;;;31.07;18.27;;;2.90;99.90;;;;;;4999365;28;21013;-76
2021/12/28 03:52:31;;;;;;;28.20;17.63;;;2.80;99.90;;;;;;5007741;28;20658;-75
2021/12/28 03:54:56;;;;;;;27.30;17.60;;;2.80;99.90;;;;;;4989128;28;20667;-76
2021/12/28 03:57:22;;;;;;;27.70;18.27;;;2.70;99.90;;;;;;5007404;28;20718;-75
2021/12/28 03:59:47;;;;;;;28.20;18.60;;;2.80;99.90;;;;;;5001891;28;20690;-75
2021/12/28 04:02:15;;;;;;;26.17;18.43;;;2.80;99.90;;;;;;5006351;28;20189;-77
2021/12/28 04:04:44;;;;;;;29.10;18.57;;;2.70;99.90;;;;;;5007037;28;20192;-77
2021/12/28 04:07:13;;;;;;;26.90;18.80;;;2.70;99.90;;;;;;5004574;28;20651;-76
2021/12/28 04:12:18;;;;;;;29.00;17.50;;;2.80;99.90;;;;;;5008002;28;21015;-76
2021/12/28 04:14:47;;;;;;;30.43;19.60;;;2.80;99.90;;;;;;4990093;28;20648;-76
2021/12/28 04:17:12;;;;;;;27.03;19.10;;;2.70;99.90;;;;;;5006724;28;20612;-76
2021/12/28 04:19:41;;;;;;;28.20;17.57;;;2.60;99.90;;;;;;4989306;28;21113;-76
2021/12/28 04:22:07;;;;;;;26.90;18.60;;;2.60;99.90;;;;;;5004236;28;20198;-77
2021/12/28 04:24:36;;;;;;;27.97;18.50;;;2.70;99.90;;;;;;4986468;28;20633;-77
2021/12/28 04:27:02;;;;;;;32.87;19.20;;;2.70;99.90;;;;;;4987008;28;20719;-76
2021/12/28 04:29:28;;;;;;;25.97;17.53;;;2.60;99.90;;;;;;5007067;28;21101;-77
2021/12/28 04:31:58;;;;;;;28.57;18.97;;;2.70;99.90;;;;;;5006213;28;20972;-77
2021/12/28 04:34:24;;;;;;;27.77;18.67;;;2.80;99.90;;;;;;4996900;28;20636;-75
2021/12/28 04:36:52;;;;;;;28.10;19.57;;;2.70;99.90;;;;;;4986697;28;20636;-75
2021/12/28 04:39:18;;;;;;;28.57;19.13;;;2.70;99.90;;;;;;5004112;28;20221;-74
2021/12/28 04:41:46;;;;;;;25.23;17.73;;;2.80;99.90;;;;;;4993790;28;20955;-77
2021/12/28 04:44:13;;;;;;;28.57;18.10;;;2.70;99.90;;;;;;4997867;28;20192;-77
2021/12/28 04:46:40;;;;;;;26.10;18.33;;;2.80;99.90;;;;;;5012190;28;20656;-78
2021/12/28 04:49:08;;;;;;;26.33;18.60;;;2.90;99.90;;;;;;5010767;28;20791;-77
2021/12/28 04:51:33;;;;;;;24.97;17.17;;;2.80;99.90;;;;;;4998814;28;20645;-76
2021/12/28 04:54:01;;;;;;;30.53;20.37;;;2.80;99.90;;;;;;5003273;28;20733;-76
2021/12/28 04:56:26;;;;;;;26.90;17.63;;;2.80;99.90;;;;;;4992598;28;20322;-77
2021/12/28 04:58:55;;;;;;;26.03;17.83;;;2.80;99.90;;;;;;5007634;28;20675;-76
2021/12/28 05:01:21;;;;;;;29.13;19.30;;;2.90;99.90;;;;;;5004353;28;20268;-76
2021/12/28 05:03:46;;;;;;;31.30;19.03;;;2.80;99.90;;;;;;4988637;28;20616;-77
2021/12/28 05:06:14;;;;;;;27.50;18.50;;;2.80;99.90;;;;;;5013207;28;20186;-77
2021/12/28 05:08:41;;;;;;;28.10;18.20;;;2.80;99.90;;;;;;4995785;28;20304;-78
2021/12/28 05:11:06;;;;;;;28.60;18.50;;;2.80;99.90;;;;;;5001942;28;20636;-78
2021/12/28 05:13:32;;;;;;;30.67;18.77;;;2.80;99.90;;;;;;5019961;28;20650;-78
2021/12/28 05:15:58;;;;;;;31.27;19.90;;;2.90;99.90;;;;;;5000455;28;20193;-75
2021/12/28 05:18:26;;;;;;;30.70;20.27;;;2.80;99.90;;;;;;4987757;28;20711;-76
2021/12/28 05:20:54;;;;;;;29.60;19.13;;;2.80;99.90;;;;;;5001635;28;20596;-76
2021/12/28 05:23:20;;;;;;;29.30;18.53;;;2.80;99.90;;;;;;4982759;28;20664;-76
2021/12/28 05:25:45;;;;;;;27.90;18.43;;;2.70;99.90;;;;;;4991581;28;20782;-76
2021/12/28 05:28:11;;;;;;;31.47;20.10;;;2.80;99.90;;;;;;4987030;28;20225;-77
2021/12/28 05:30:37;;;;;;;25.97;18.57;;;2.80;99.90;;;;;;5009495;28;20243;-76
2021/12/28 05:33:03;;;;;;;27.93;18.73;;;2.70;99.90;;;;;;5013120;28;20201;-77
2021/12/28 05:35:29;;;;;;;28.90;18.37;;;2.80;99.90;;;;;;5009598;28;20616;-78
2021/12/28 05:37:55;;;;;;;30.43;18.17;;;2.70;99.90;;;;;;5011817;28;20656;-77
2021/12/28 05:40:21;;;;;;;27.20;19.13;;;2.70;99.90;;;;;;5010692;28;20217;-78
2021/12/28 05:42:49;;;;;;;29.23;18.13;;;2.70;99.90;;;;;;4995387;28;20656;-77
2021/12/28 05:45:17;;;;;;;30.03;18.90;;;2.70;99.90;;;;;;4992166;28;20698;-77
2021/12/28 05:47:42;;;;;;;29.90;17.90;;;2.60;99.90;;;;;;5012738;28;20624;-77
2021/12/28 05:50:12;;;;;;;32.03;19.60;;;2.70;99.90;;;;;;5006747;28;20695;-76
2021/12/28 05:52:38;;;;;;;29.03;19.40;;;2.80;99.90;;;;;;4993018;28;20244;-76
2021/12/28 05:55:04;;;;;;;27.57;18.23;;;2.80;99.90;;;;;;4990655;28;20699;-76
2021/12/28 05:57:30;;;;;;;27.63;18.60;;;2.90;99.90;;;;;;5011031;28;20610;-76
2021/12/28 05:59:58;;;;;;;28.37;19.70;;;2.90;99.90;;;;;;4991359;28;20656;-77
2021/12/28 06:02:24;;;;;;;29.90;19.10;;;2.80;99.90;;;;;;5007122;28;20201;-76
2021/12/28 06:04:50;;;;;;;26.20;18.23;;;2.80;99.90;;;;;;4991939;28;20628;-77
2021/12/28 06:07:15;;;;;;;30.80;20.03;;;2.80;99.90;;;;;;5010387;28;20189;-75
2021/12/28 06:09:46;;;;;;;35.03;19.33;;;2.80;99.90;;;;;;4988616;28;20571;-75
2021/12/28 06:12:14;;;;;;;28.13;19.87;;;2.90;99.90;;;;;;4989553;28;20188;-75
2021/12/28 06:14:42;;;;;;;31.03;20.00;;;2.90;99.90;;;;;;5011221;28;20656;-77
2021/12/28 06:17:09;;;;;;;26.67;18.20;;;2.80;99.90;;;;;;5014387;28;20623;-78
2021/12/28 06:19:37;;;;;;;28.47;18.57;;;2.90;99.90;;;;;;5011405;28;20644;-78
2021/12/28 06:22:03;;;;;;;28.60;18.90;;;2.90;99.90;;;;;;5015390;28;20972;-78
2021/12/28 06:24:29;;;;;;;30.87;20.27;;;2.90;99.90;;;;;;5016162;28;20746;-78
2021/12/28 06:26:57;;;;;;;28.37;18.90;;;2.90;99.90;;;;;;4996793;28;20724;-78
2021/12/28 06:29:23;;;;;;;29.10;19.47;;;2.80;99.90;;;;;;5012862;28;23600;-78
2021/12/28 06:31:48;;;;;;;29.40;18.97;;;2.80;99.90;;;;;;4989817;28;21184;-77
2021/12/28 06:34:16;;;;;;;28.67;19.50;;;2.90;99.90;;;;;;4991653;28;20217;-77
2021/12/28 06:36:43;;;;;;;29.00;19.00;;;2.90;99.90;;;;;;5006523;28;20276;-78
2021/12/28 06:39:09;;;;;;;29.23;19.33;;;3.00;99.90;;;;;;5013588;28;21241;-76
2021/12/28 06:41:35;;;;;;;29.93;19.70;;;3.00;99.90;;;;;;5011270;28;20668;-78
2021/12/28 06:44:09;;;;;;;30.87;20.30;;;2.90;99.90;;;;;;5009006;28;20666;-78
2021/12/28 06:46:40;;;;;;;33.53;19.00;;;2.90;99.90;;;;;;5010006;28;20231;-78
2021/12/28 06:49:06;;;;;;;28.73;19.60;;;2.90;99.90;;;;;;5009755;28;20722;-78
2021/12/28 06:51:33;;;;;;;27.87;19.10;;;2.80;99.90;;;;;;4998273;28;21219;-79
2021/12/28 06:53:59;;;;;;;26.93;19.40;;;2.80;99.90;;;;;;5012623;28;20220;-78
2021/12/28 06:56:25;;;;;;;30.63;21.43;;;2.80;99.90;;;;;;5013214;28;21173;-77
2021/12/28 06:58:51;;;;;;;29.77;19.30;;;2.80;99.90;;;;;;4987728;28;20209;-77
2021/12/28 07:01:17;;;;;;;32.73;20.30;;;2.80;99.90;;;;;;5009650;28;20281;-77
2021/12/28 07:03:43;;;;;;;35.13;21.07;;;2.80;99.90;;;;;;5009084;28;20606;-78
2021/12/28 07:06:08;;;;;;;33.80;21.57;;;2.70;99.90;;;;;;5008222;28;20664;-77
2021/12/28 07:08:35;;;;;;;29.60;19.80;;;2.60;99.90;;;;;;5007738;28;20580;-77
2021/12/28 07:11:00;;;;;;;32.43;21.07;;;2.60;99.90;;;;;;4993597;28;20226;-77
2021/12/28 07:13:26;;;;;;;33.03;21.63;;;2.60;99.90;;;;;;4992883;28;20654;-77
2021/12/28 07:15:51;;;;;;;31.57;21.53;;;2.70;99.90;;;;;;4994248;28;20240;-77
2021/12/28 07:18:18;;;;;;;35.37;22.43;;;2.70;99.90;;;;;;4990452;28;20209;-77
2021/12/28 07:20:43;;;;;;;35.80;21.70;;;2.60;99.90;;;;;;4989404;28;20305;-77
2021/12/28 07:23:09;;;;;;;34.37;21.03;;;2.50;99.90;;;;;;5010068;28;20635;-79
2021/12/28 07:25:35;;;;;;;31.67;20.07;;;2.50;99.90;;;;;;5001197;28;20272;-79
2021/12/28 07:28:01;;;;;;;35.23;21.93;;;2.60;99.90;;;;;;5000534;28;20204;-78
2021/12/28 07:30:27;;;;;;;32.03;20.83;;;2.70;99.90;;;;;;5013674;28;20635;-78
2021/12/28 07:32:52;;;;;;;31.40;19.73;;;2.80;99.90;;;;;;5014650;28;20177;-79
2021/12/28 07:35:18;;;;;;;29.27;19.93;;;2.80;99.90;;;;;;4996133;28;20206;-79
2021/12/28 08:01:46;;;;;;;33.60;22.80;;;2.90;99.90;;;;;;4990834;23;20680;-71
2021/12/28 08:04:11;;;;;;;32.03;21.27;;;2.90;99.90;;;;;;4971452;28;20625;-78
2021/12/28 08:06:37;;;;;;;31.07;19.97;;;3.00;99.90;;;;;;4976079;28;20578;-79
2021/12/28 08:09:03;;;;;;;33.50;20.43;;;2.90;99.90;;;;;;4966723;28;20206;-79
2021/12/28 08:11:29;;;;;;;31.43;20.27;;;2.90;99.90;;;;;;4978796;28;20593;-80
2021/12/28 08:13:55;;;;;;;32.53;21.10;;;2.80;99.90;;;;;;4959279;28;20250;-79
2021/12/28 08:16:24;;;;;;;32.73;21.37;;;3.00;99.90;;;;;;4965293;28;20714;-80
2021/12/28 08:18:50;;;;;;;35.07;21.53;;;2.90;99.90;;;;;;5002920;28;20204;-78
2021/12/28 08:21:16;;;;;;;31.93;21.07;;;3.10;99.90;;;;;;5001378;28;20585;-79
2021/12/28 08:23:42;;;;;;;34.70;21.50;;;3.00;99.90;;;;;;4985794;28;20282;-78
2021/12/28 08:26:07;;;;;;;30.33;21.67;;;3.00;99.90;;;;;;5007509;28;20678;-79
2021/12/28 08:28:33;;;;;;;34.00;20.30;;;3.10;99.90;;;;;;4995390;28;21184;-78
2021/12/28 08:30:59;;;;;;;31.60;21.40;;;3.20;99.90;;;;;;4986684;28;20272;-79
2021/12/28 08:33:28;;;;;;;29.10;19.73;;;2.90;99.90;;;;;;4996337;28;20213;-79
2021/12/28 08:38:41;;;;;;;35.17;22.20;;;3.00;99.90;;;;;;4994602;28;20621;-78
2021/12/28 08:41:17;;;;;;;33.47;19.90;;;2.80;99.90;;;;;;4989852;28;21227;-80
2021/12/28 08:44:08;;;;;;;36.70;21.77;;;3.10;99.90;;;;;;4995088;28;20611;-80
2021/12/28 08:50:10;;;;;;;34.93;20.80;;;2.90;99.90;;;;;;5357416;23;20692;-78
2021/12/28 08:52:37;;;;;;;31.67;20.97;;;2.90;99.90;;;;;;4983041;28;20729;-79
2021/12/28 08:55:04;;;;;;;38.27;22.40;;;3.00;99.90;;;;;;4988129;28;20656;-79
2021/12/28 08:57:30;;;;;;;36.43;21.77;;;3.00;99.90;;;;;;4993548;28;20723;-78
2021/12/28 08:59:59;;;;;;;34.53;21.23;;;3.00;99.90;;;;;;4997110;28;20643;-79
2021/12/28 09:02:25;;;;;;;33.90;21.30;;;2.90;99.90;;;;;;4994111;28;20194;-79
2021/12/28 09:04:53;;;;;;;35.57;22.73;;;3.10;99.90;;;;;;4988883;28;20704;-78
2021/12/28 09:07:19;;;;;;;34.43;22.83;;;3.00;99.90;;;;;;4996636;28;20190;-78
2021/12/28 09:09:49;;;;;;;43.03;23.53;;;2.80;99.90;;;;;;5001265;28;20734;-78
2021/12/28 09:12:15;;;;;;;32.83;21.80;;;2.90;99.90;;;;;;5012866;28;20627;-78
2021/12/28 09:14:42;;;;;;;37.57;21.23;;;2.90;99.90;;;;;;5006098;28;20660;-73
2021/12/28 09:17:08;;;;;;;33.50;21.50;;;3.00;99.90;;;;;;4985098;28;20193;-75
2021/12/28 09:19:34;;;;;;;38.47;23.67;;;3.00;99.90;;;;;;5000236;28;20695;-75
2021/12/28 09:22:00;;;;;;;42.37;22.87;;;3.00;99.90;;;;;;4990564;28;20628;-77
2021/12/28 09:24:25;;;;;;;36.53;22.63;;;3.00;99.90;;;;;;5008716;28;20613;-78
2021/12/28 09:26:51;;;;;;;36.43;22.53;;;3.00;99.90;;;;;;5013278;28;20651;-77
2021/12/28 09:29:17;;;;;;;43.70;23.43;;;3.00;99.90;;;;;;4998441;28;20648;-77
2021/12/28 09:31:43;;;;;;;37.80;22.70;;;3.00;99.90;;;;;;5009816;28;21212;-77
2021/12/28 09:34:09;;;;;;;37.97;22.80;;;3.10;99.90;;;;;;5007724;28;20705;-77
2021/12/28 09:36:35;;;;;;;38.93;23.20;;;3.10;99.90;;;;;;4992357;28;20207;-77
2021/12/28 09:39:01;;;;;;;37.37;24.10;;;2.90;99.90;;;;;;4992584;28;21774;-76
2021/12/28 09:41:27;;;;;;;40.20;24.60;;;2.80;99.90;;;;;;5008524;28;20809;-76
2021/12/28 09:43:52;;;;;;;37.40;23.53;;;2.80;99.90;;;;;;5005441;28;20623;-77
2021/12/28 09:46:18;;;;;;;45.33;24.30;;;3.00;99.90;;;;;;4992934;28;20201;-77
2021/12/28 09:48:44;;;;;;;38.30;23.37;;;3.00;99.90;;;;;;4994012;28;20217;-77
2021/12/28 09:51:10;;;;;;;38.57;23.40;;;2.90;99.90;;;;;;5005613;28;20259;-76
2021/12/28 09:53:37;;;;;;;40.10;23.37;;;3.00;99.90;;;;;;5000638;28;20706;-77
2021/12/28 09:56:04;;;;;;;37.43;22.87;;;3.10;99.90;;;;;;4990332;28;20190;-77
2021/12/28 09:58:33;;;;;;;42.53;23.57;;;3.10;99.90;;;;;;5007340;28;20683;-77
2021/12/28 10:00:59;;;;;;;39.37;22.20;;;3.20;99.90;;;;;;5012844;28;20686;-76
2021/12/28 10:03:24;;;;;;;41.43;23.07;;;3.20;99.90;;;;;;5009102;28;20613;-77
2021/12/28 10:05:50;;;;;;;38.73;23.97;;;3.20;99.90;;;;;;5009861;28;20186;-77
2021/12/28 10:08:16;;;;;;;38.83;23.83;;;3.10;99.90;;;;;;4982130;28;20246;-76
2021/12/28 10:10:45;;;;;;;40.00;22.73;;;3.10;99.90;;;;;;5005198;28;20297;-77
2021/12/28 10:13:19;;;;;;;40.27;23.40;;;3.10;99.90;;;;;;5014286;28;20586;-77
2021/12/28 10:15:45;;;;;;;39.33;22.87;;;3.20;99.90;;;;;;4990494;28;20613;-77
2021/12/28 10:18:15;;;;;;;35.83;22.73;;;3.20;99.90;;;;;;4997299;28;20640;-76
2021/12/28 10:20:49;;;;;;;38.70;23.33;;;3.20;99.90;;;;;;4998473;28;21023;-76
2021/12/28 10:23:20;;;;;;;40.37;23.63;;;3.30;99.90;;;;;;5010550;28;20571;-78
2021/12/28 10:25:49;;;;;;;38.43;23.13;;;3.30;99.90;;;;;;5001843;28;21137;-77
2021/12/28 10:31:07;;;;;;;43.27;24.67;;;3.30;99.90;;;;;;6063749;23;20589;-76
2021/12/28 10:33:36;;;;;;;40.20;24.53;;;3.40;99.90;;;;;;4993206;28;20671;-79
2021/12/28 10:36:08;;;;;;;43.17;25.47;;;3.10;99.90;;;;;;4990200;28;20620;-77
2021/12/28 10:38:46;;;;;;;34.83;23.77;;;3.30;99.90;;;;;;5010882;28;20652;-77
2021/12/28 10:41:15;;;;;;;37.00;23.30;;;3.30;99.90;;;;;;5009005;28;20629;-77
2021/12/28 10:43:45;;;;;;;42.07;24.73;;;3.50;99.90;;;;;;5006960;28;20607;-77
2021/12/28 10:46:23;;;;;;;41.10;23.80;;;3.40;99.90;;;;;;4988580;28;20631;-76
2021/12/28 10:48:53;;;;;;;39.77;23.30;;;3.30;99.90;;;;;;5002479;28;20656;-76
2021/12/28 10:51:31;;;;;;;40.83;23.87;;;3.60;99.90;;;;;;4988395;28;20624;-76
2021/12/28 10:56:33;;;;;;;40.17;23.03;;;3.40;99.90;;;;;;5010938;28;20624;-77
2021/12/28 10:58:59;;;;;;;40.70;23.63;;;3.40;99.90;;;;;;4992815;28;20704;-76
2021/12/28 11:01:27;;;;;;;42.70;24.50;;;3.50;99.90;;;;;;4993597;28;20642;-77
2021/12/28 11:03:56;;;;;;;39.10;23.70;;;3.50;99.90;;;;;;4992573;28;20612;-76
2021/12/28 11:06:24;;;;;;;43.83;23.83;;;3.40;99.90;;;;;;5011453;28;20672;-76
2021/12/28 11:11:43;;;;;;;39.87;22.73;;;3.40;99.90;;;;;;5231903;23;20688;-75
2021/12/28 11:14:12;;;;;;;40.70;24.27;;;3.50;99.90;;;;;;5003780;28;20655;-77
2021/12/28 11:16:39;;;;;;;38.83;22.90;;;3.50;99.90;;;;;;5003262;28;20563;-77
2021/12/28 11:30:35;;;;;;;40.67;24.40;;;3.60;99.90;;;;;;5943553;23;21935;-76
2021/12/28 11:33:08;;;;;;;40.80;24.70;;;3.50;99.90;;;;;;4989820;28;20625;-77
2021/12/28 11:35:34;;;;;;;43.60;26.73;;;3.50;99.90;;;;;;4998873;28;20181;-76
2021/12/28 11:44:19;;;;;;;37.40;23.57;;;3.60;99.90;;;;;;5139027;23;20691;-78
2021/12/28 11:46:47;;;;;;;45.77;25.77;;;3.50;99.90;;;;;;4989050;28;20634;-75
2021/12/28 11:49:14;;;;;;;37.63;24.43;;;3.60;99.90;;;;;;4982448;28;20642;-79
2021/12/28 11:51:45;;;;;;;40.00;23.70;;;3.60;99.90;;;;;;4982141;28;20632;-77
2021/12/28 11:54:14;;;;;;;43.70;24.80;;;3.60;99.90;;;;;;4971869;28;20732;-77
2021/12/28 11:56:49;;;;;;;39.43;22.37;;;3.80;99.90;;;;;;4980137;28;20633;-78
2021/12/28 11:59:21;;;;;;;38.77;25.30;;;4.00;99.90;;;;;;4992136;28;20630;-77
2021/12/28 12:02:03;;;;;;;37.50;23.97;;;3.80;99.90;;;;;;4986809;28;20642;-76
2021/12/28 12:04:35;;;;;;;38.90;24.00;;;4.00;99.90;;;;;;4983517;28;20609;-77
2021/12/28 12:07:12;;;;;;;37.73;23.43;;;3.80;99.90;;;;;;4983942;28;20645;-79
2021/12/28 12:12:47;;;;;;;39.60;25.07;;;4.10;99.90;;;;;;5004329;28;20706;-77
2021/12/28 12:15:17;;;;;;;41.00;24.03;;;4.10;99.90;;;;;;5000508;28;20644;-77
2021/12/28 12:36:37;;;;;;;34.93;23.13;;;4.10;99.90;;;;;;5808714;23;20683;-78
2021/12/28 12:39:05;;;;;;;40.63;22.73;;;3.90;99.90;;;;;;5008884;28;20648;-77
2021/12/28 12:41:47;;;;;;;39.73;24.40;;;4.00;99.90;;;;;;5012743;28;20667;-77
2021/12/28 12:44:21;;;;;;;38.57;25.13;;;4.20;99.90;;;;;;5002373;28;20623;-78
2021/12/28 12:46:48;;;;;;;38.00;24.57;;;4.30;99.90;;;;;;4993592;28;20666;-77
2021/12/28 12:49:29;;;;;;;40.00;23.87;;;4.00;99.90;;;;;;4996457;28;20641;-78
2021/12/28 12:51:57;;;;;;;37.20;23.60;;;4.00;99.90;;;;;;5013580;28;20604;-77
2021/12/28 12:54:31;;;;;;;42.77;25.10;;;4.20;99.90;;;;;;4992465;28;20735;-79
2021/12/28 12:57:03;;;;;;;40.57;25.17;;;4.00;99.90;;;;;;4994667;28;21079;-78
2021/12/28 12:59:38;;;;;;;40.17;25.10;;;4.00;99.90;;;;;;4995059;28;20632;-78
2021/12/28 13:02:24;;;;;;;41.20;25.50;;;4.00;99.90;;;;;;5002219;28;20647;-77
2021/12/28 13:04:57;;;;;;;40.40;23.73;;;4.20;99.90;;;;;;5002100;28;20636;-78
2021/12/28 13:07:32;;;;;;;41.57;24.83;;;4.30;99.90;;;;;;5016009;28;20591;-78
2021/12/28 13:10:05;;;;;;;40.40;24.10;;;4.40;99.90;;;;;;5009008;28;20634;-78
2021/12/28 13:12:32;;;;;;;42.00;24.87;;;4.30;99.90;;;;;;4996205;28;20616;-78
2021/12/28 13:14:58;;;;;;;39.37;24.80;;;4.10;99.90;;;;;;4997486;28;20656;-78
2021/12/28 13:17:32;;;;;;;40.30;23.80;;;4.20;99.90;;;;;;4997741;28;20611;-78
2021/12/28 13:44:10;;;;;;;40.47;25.50;;;4.30;99.90;;;;;;5817203;23;20685;-78
2021/12/28 13:46:36;;;;;;;42.37;25.87;;;4.30;99.90;;;;;;4987989;28;20635;-78
2021/12/28 13:49:01;;;;;;;40.67;23.80;;;4.20;99.90;;;;;;4987125;28;20220;-78
2021/12/28 13:51:29;;;;;;;37.90;24.80;;;4.10;99.90;;;;;;5010069;23;20232;-74
2021/12/28 13:53:59;;;;;;;45.60;26.30;;;4.20;99.90;;;;;;5004123;28;20590;-72
2021/12/28 13:56:33;;;;;;;41.80;26.73;;;4.20;99.90;;;;;;5001589;28;21401;-72
2021/12/28 13:58:59;;;;;;;43.43;26.60;;;4.20;99.90;;;;;;5008283;28;20675;-74
2021/12/28 14:01:28;;;;;;;40.50;24.63;;;4.20;99.90;;;;;;4992774;28;20741;-76
2021/12/28 14:03:55;;;;;;;40.03;24.80;;;4.20;99.90;;;;;;4989607;28;20639;-73
2021/12/28 14:06:21;;;;;;;40.27;25.60;;;4.20;99.90;;;;;;5009740;28;20620;-73
2021/12/28 14:08:47;;;;;;;43.20;25.30;;;4.20;99.90;;;;;;4997131;28;20648;-75
2021/12/28 14:11:12;;;;;;;38.73;24.93;;;4.20;99.90;;;;;;5007464;28;20686;-76
2021/12/28 14:13:41;;;;;;;37.80;24.50;;;4.20;99.90;;;;;;4985763;28;20209;-74
2021/12/28 14:16:06;;;;;;;41.20;25.13;;;4.20;99.90;;;;;;5000705;28;20188;-74
2021/12/28 14:18:47;;;;;;;40.33;24.67;;;4.20;99.90;;;;;;5001685;28;20712;-74
2021/12/28 14:21:24;;;;;;;41.50;25.30;;;4.20;99.90;;;;;;5003030;28;20193;-75
2021/12/28 14:24:02;;;;;;;40.70;25.20;;;4.30;99.90;;;;;;5005990;28;20611;-75
2021/12/28 14:26:39;;;;;;;37.50;25.60;;;4.30;99.90;;;;;;5001859;28;20608;-75